createdAt,value
2023-06-07T00:00:29.050Z,32.01
2023-06-07T00:01:29.108Z,32.01
2023-06-07T00:02:42.174Z,32.00
2023-06-07T00:03:30.289Z,32.01
2023-06-07T00:04:29.278Z,32.02
2023-06-07T00:05:29.126Z,32.05
2023-06-07T00:06:29.139Z,32.01
2023-06-07T00:07:29.110Z,32.01
2023-06-07T00:08:29.121Z,32.05
2023-06-07T00:09:29.248Z,32.04
2023-06-07T00:10:29.112Z,32.03
2023-06-07T00:11:29.104Z,32.04
2023-06-07T00:12:29.111Z,32.05
2023-06-07T00:13:29.159Z,32.02
2023-06-07T00:14:29.212Z,32.06
2023-06-07T00:15:29.243Z,32.06
2023-06-07T00:16:29.284Z,32.05
2023-06-07T00:17:29.489Z,32.03
2023-06-07T00:18:29.585Z,32.05
2023-06-07T00:19:29.431Z,32.06
2023-06-07T00:20:29.470Z,32.05
2023-06-07T00:21:29.473Z,32.05
2023-06-07T00:22:29.497Z,32.06
2023-06-07T00:23:29.629Z,32.07
2023-06-07T00:24:29.597Z,32.07
2023-06-07T00:25:29.610Z,32.07
2023-06-07T00:26:29.631Z,32.10
2023-06-07T00:27:29.651Z,32.09
2023-06-07T00:28:29.941Z,32.08
2023-06-07T00:29:29.685Z,32.10
2023-06-07T00:30:29.713Z,32.10
2023-06-07T00:31:29.853Z,32.10
2023-06-07T00:32:29.869Z,32.11
2023-06-07T00:33:29.842Z,32.10
2023-06-07T00:34:29.878Z,32.12
2023-06-07T00:35:29.911Z,32.12
2023-06-07T00:36:29.951Z,32.13
2023-06-07T00:37:29.968Z,32.13
2023-06-07T00:38:29.989Z,32.13
2023-06-07T00:39:30.005Z,32.14
2023-06-07T00:40:30.029Z,32.15
2023-06-07T00:41:30.047Z,32.14
2023-06-07T00:42:30.063Z,32.17
2023-06-07T00:43:30.088Z,32.15
2023-06-07T00:44:30.108Z,32.17
2023-06-07T00:45:30.129Z,32.18
2023-06-07T00:46:30.166Z,32.17
2023-06-07T00:47:30.202Z,32.18
2023-06-07T00:48:30.257Z,32.19
2023-06-07T00:49:30.160Z,32.19
2023-06-07T00:50:30.169Z,32.17
2023-06-07T00:51:30.189Z,32.19
2023-06-07T00:52:30.201Z,32.22
2023-06-07T00:53:30.248Z,32.21
2023-06-07T00:54:30.271Z,32.21
2023-06-07T00:55:30.281Z,32.22
2023-06-07T00:56:30.288Z,32.24
2023-06-07T00:57:30.316Z,32.23
2023-06-07T00:58:30.338Z,32.25
2023-06-07T00:59:30.358Z,32.23
2023-06-07T01:00:30.351Z,32.22
2023-06-07T01:01:30.520Z,32.24
2023-06-07T01:02:30.473Z,32.27
2023-06-07T01:03:30.499Z,32.26
2023-06-07T01:04:30.432Z,32.27
2023-06-07T01:05:30.434Z,32.29
2023-06-07T01:06:30.474Z,32.25
2023-06-07T01:07:30.467Z,32.30
2023-06-07T01:08:30.488Z,32.28
2023-06-07T01:09:30.520Z,32.29
2023-06-07T01:10:30.509Z,32.29
2023-06-07T01:11:30.499Z,32.27
2023-06-07T01:12:30.524Z,32.29
2023-06-07T01:13:30.517Z,32.29
2023-06-07T01:14:30.523Z,32.28
2023-06-07T01:15:30.544Z,32.29
2023-06-07T01:16:30.591Z,32.28
2023-06-07T01:17:30.602Z,32.30
2023-06-07T01:18:30.599Z,32.29
2023-06-07T01:19:30.625Z,32.28
2023-06-07T01:20:30.632Z,32.30
2023-06-07T01:21:30.636Z,32.28
2023-06-07T01:22:30.649Z,32.29
2023-06-07T01:23:30.637Z,32.27
2023-06-07T01:24:30.645Z,32.28
2023-06-07T01:25:30.637Z,32.27
2023-06-07T01:26:30.642Z,32.29
2023-06-07T01:27:30.644Z,32.29
2023-06-07T01:28:30.626Z,32.29
2023-06-07T01:29:30.638Z,32.29
2023-06-07T01:30:30.691Z,32.28
2023-06-07T01:31:30.647Z,32.29
2023-06-07T01:32:30.658Z,32.28
2023-06-07T01:33:30.639Z,32.31
2023-06-07T01:34:30.633Z,32.28
2023-06-07T01:35:30.651Z,32.25
2023-06-07T01:36:30.642Z,32.31
2023-06-07T01:37:30.653Z,32.30
2023-06-07T01:38:30.663Z,32.29
2023-06-07T01:39:30.645Z,32.29
2023-06-07T01:40:30.657Z,32.29
2023-06-07T01:41:30.660Z,32.29
2023-06-07T01:42:30.675Z,32.29
2023-06-07T01:43:30.679Z,32.31
2023-06-07T01:44:30.663Z,32.28
2023-06-07T01:45:30.723Z,32.29
2023-06-07T01:46:30.722Z,32.28
2023-06-07T01:47:30.697Z,32.30
2023-06-07T01:48:30.692Z,32.32
2023-06-07T01:49:30.692Z,32.30
2023-06-07T01:50:30.679Z,32.30
2023-06-07T01:51:30.693Z,32.28
2023-06-07T01:52:30.671Z,32.31
2023-06-07T01:53:30.692Z,32.30
2023-06-07T01:54:30.703Z,32.29
2023-06-07T01:55:30.692Z,32.26
2023-06-07T01:56:30.703Z,32.29
2023-06-07T01:57:30.728Z,32.30
2023-06-07T01:58:30.672Z,32.28
2023-06-07T01:59:30.687Z,32.30
2023-06-07T02:00:30.684Z,32.30
2023-06-07T02:01:30.715Z,32.27
2023-06-07T02:02:30.750Z,32.29
2023-06-07T02:03:30.688Z,32.29
2023-06-07T02:04:30.687Z,32.30
2023-06-07T02:05:30.705Z,32.29
2023-06-07T02:06:30.681Z,32.28
2023-06-07T02:07:30.681Z,32.30
2023-06-07T02:08:30.694Z,32.28
2023-06-07T02:09:30.677Z,32.30
2023-06-07T02:10:30.672Z,32.29
2023-06-07T02:11:30.668Z,32.29
2023-06-07T02:12:30.670Z,32.30
2023-06-07T02:13:30.695Z,32.30
2023-06-07T02:14:30.676Z,32.29
2023-06-07T02:15:30.699Z,32.32
2023-06-07T02:16:30.682Z,32.28
2023-06-07T02:17:30.858Z,32.29
2023-06-07T02:18:30.700Z,32.32
2023-06-07T02:19:30.691Z,32.28
2023-06-07T02:20:30.716Z,32.29
2023-06-07T02:21:30.704Z,32.30
2023-06-07T02:22:30.729Z,32.31
2023-06-07T02:23:30.713Z,32.31
2023-06-07T02:24:30.703Z,32.29
2023-06-07T02:25:30.693Z,32.31
2023-06-07T02:26:30.720Z,32.31
2023-06-07T02:27:30.696Z,32.29
2023-06-07T02:28:30.722Z,32.32
2023-06-07T02:29:30.700Z,32.30
2023-06-07T02:30:30.719Z,32.32
2023-06-07T02:31:30.744Z,32.31
2023-06-07T02:32:30.723Z,32.33
2023-06-07T02:33:30.721Z,32.30
2023-06-07T02:34:30.722Z,32.31
2023-06-07T02:35:30.778Z,32.33
2023-06-07T02:36:30.734Z,32.33
2023-06-07T02:37:30.735Z,32.32
2023-06-07T02:38:30.762Z,32.33
2023-06-07T02:39:30.753Z,32.31
2023-06-07T02:40:30.785Z,32.32
2023-06-07T02:41:30.777Z,32.31
2023-06-07T02:42:30.770Z,32.33
2023-06-07T02:43:30.786Z,32.32
2023-06-07T02:44:30.777Z,32.31
2023-06-07T02:45:30.787Z,32.32
2023-06-07T02:46:30.808Z,32.32
2023-06-07T02:47:30.806Z,32.31
2023-06-07T02:48:30.824Z,32.29
2023-06-07T02:49:30.823Z,32.30
2023-06-07T02:50:30.854Z,32.31
2023-06-07T02:51:30.859Z,32.26
2023-06-07T02:52:30.848Z,32.29
2023-06-07T02:53:30.841Z,32.29
2023-06-07T02:54:30.871Z,32.29
2023-06-07T02:55:30.882Z,32.31
2023-06-07T02:56:30.887Z,32.30
2023-06-07T02:57:30.914Z,32.27
2023-06-07T02:58:30.896Z,32.29
2023-06-07T02:59:30.908Z,32.29
2023-06-07T03:00:30.920Z,32.28
2023-06-07T03:01:30.974Z,32.29
2023-06-07T03:02:31.068Z,32.29
2023-06-07T03:03:31.073Z,32.29
2023-06-07T03:04:30.966Z,32.28
2023-06-07T03:05:30.970Z,32.29
2023-06-07T03:06:31.001Z,32.29
2023-06-07T03:07:30.990Z,32.30
2023-06-07T03:08:31.006Z,32.30
2023-06-07T03:09:31.008Z,32.31
2023-06-07T03:10:31.033Z,32.31
2023-06-07T03:11:31.016Z,32.31
2023-06-07T03:12:31.035Z,32.32
2023-06-07T03:13:31.059Z,32.31
2023-06-07T03:14:31.070Z,32.29
2023-06-07T03:15:31.060Z,32.33
2023-06-07T03:16:31.178Z,32.30
2023-06-07T03:17:31.117Z,32.30
2023-06-07T03:18:31.074Z,32.30
2023-06-07T03:19:31.123Z,32.31
2023-06-07T03:20:31.152Z,32.29
2023-06-07T03:21:31.117Z,32.29
2023-06-07T03:22:31.135Z,32.31
2023-06-07T03:23:31.214Z,32.29
2023-06-07T03:24:31.148Z,32.28
2023-06-07T03:25:31.277Z,32.29
2023-06-07T03:26:31.184Z,32.30
2023-06-07T03:27:31.201Z,32.29
2023-06-07T03:28:31.194Z,32.27
2023-06-07T03:29:31.220Z,32.29
2023-06-07T03:30:31.240Z,32.28
2023-06-07T03:31:31.272Z,32.29
2023-06-07T03:32:31.258Z,32.30
2023-06-07T03:33:31.255Z,32.29
2023-06-07T03:34:31.255Z,32.27
2023-06-07T03:35:31.282Z,32.26
2023-06-07T03:36:31.303Z,32.26
2023-06-07T03:37:31.312Z,32.26
2023-06-07T03:38:31.320Z,32.24
2023-06-07T03:39:31.314Z,32.24
2023-06-07T03:40:31.348Z,32.26
2023-06-07T03:41:31.358Z,32.24
2023-06-07T03:42:31.368Z,32.24
2023-06-07T03:43:31.362Z,32.25
2023-06-07T03:44:31.404Z,32.24
2023-06-07T03:45:31.414Z,32.22
2023-06-07T03:46:31.429Z,32.21
2023-06-07T03:47:31.465Z,32.23
2023-06-07T03:48:31.553Z,32.24
2023-06-07T03:49:31.445Z,32.23
2023-06-07T03:50:31.467Z,32.22
2023-06-07T03:51:31.455Z,32.23
2023-06-07T03:52:31.463Z,32.22
2023-06-07T03:53:31.502Z,32.22
2023-06-07T03:54:31.484Z,32.21
2023-06-07T03:55:31.524Z,32.21
2023-06-07T03:56:31.520Z,32.21
2023-06-07T03:57:31.551Z,32.20
2023-06-07T03:58:31.532Z,32.22
2023-06-07T03:59:31.577Z,32.20
2023-06-07T04:00:31.567Z,32.21
2023-06-07T04:01:31.597Z,32.21
2023-06-07T04:02:31.653Z,32.21
2023-06-07T04:03:31.672Z,32.19
2023-06-07T04:04:31.692Z,32.22
2023-06-07T04:05:31.636Z,32.21
2023-06-07T04:06:31.667Z,32.20
2023-06-07T04:07:31.644Z,32.20
2023-06-07T04:08:31.651Z,32.19
2023-06-07T04:09:31.685Z,32.18
2023-06-07T04:10:31.690Z,32.18
2023-06-07T04:11:31.701Z,32.19
2023-06-07T04:12:31.713Z,32.17
2023-06-07T04:13:31.723Z,32.17
2023-06-07T04:14:31.735Z,32.18
2023-06-07T04:15:31.737Z,32.16
2023-06-07T04:16:31.788Z,32.15
2023-06-07T04:17:31.862Z,32.15
2023-06-07T04:18:31.791Z,32.15
2023-06-07T04:19:31.784Z,32.15
2023-06-07T04:20:31.802Z,32.14
2023-06-07T04:21:31.813Z,32.14
2023-06-07T04:22:31.856Z,32.12
2023-06-07T04:23:31.859Z,32.15
2023-06-07T04:24:31.842Z,32.16
2023-06-07T04:25:31.831Z,32.14
2023-06-07T04:26:31.848Z,32.14
2023-06-07T04:27:31.870Z,32.14
2023-06-07T04:28:31.919Z,32.17
2023-06-07T04:29:31.882Z,32.14
2023-06-07T04:30:31.900Z,32.15
2023-06-07T04:31:31.943Z,32.15
2023-06-07T04:32:31.927Z,32.15
2023-06-07T04:33:31.890Z,32.15
2023-06-07T04:34:31.906Z,32.13
2023-06-07T04:35:31.949Z,32.15
2023-06-07T04:36:31.920Z,32.15
2023-06-07T04:37:32.922Z,32.15
2023-06-07T04:38:33.354Z,32.14
2023-06-07T04:39:31.938Z,32.15
2023-06-07T04:40:31.945Z,32.16
2023-06-07T04:41:32.046Z,32.15
2023-06-07T04:42:31.940Z,32.14
2023-06-07T04:43:31.943Z,32.13
2023-06-07T04:44:31.963Z,32.12
2023-06-07T04:45:32.002Z,32.12
2023-06-07T04:46:32.181Z,32.08
2023-06-07T04:47:32.014Z,32.09
2023-06-07T04:48:31.982Z,32.08
2023-06-07T04:49:31.986Z,32.09
2023-06-07T04:50:31.982Z,32.06
2023-06-07T04:51:32.009Z,32.09
2023-06-07T04:52:31.997Z,32.06
2023-06-07T04:53:31.978Z,32.04
2023-06-07T04:54:31.980Z,32.06
2023-06-07T04:55:31.982Z,32.08
2023-06-07T04:56:31.982Z,32.06
2023-06-07T04:57:31.996Z,32.05
2023-06-07T04:58:31.971Z,32.03
2023-06-07T04:59:31.993Z,32.05
2023-06-07T05:00:32.003Z,32.04
2023-06-07T05:01:32.006Z,32.06
2023-06-07T05:02:32.024Z,32.05
2023-06-07T05:03:32.006Z,32.04
2023-06-07T05:04:32.035Z,32.04
2023-06-07T05:05:32.067Z,32.02
2023-06-07T05:06:32.049Z,32.03
2023-06-07T05:07:32.043Z,32.01
2023-06-07T05:08:32.081Z,32.01
2023-06-07T05:09:32.165Z,32.01
2023-06-07T05:10:32.125Z,32.00
2023-06-07T05:11:32.138Z,32.00
2023-06-07T05:12:32.143Z,31.99
2023-06-07T05:13:32.198Z,31.97
2023-06-07T05:14:32.213Z,31.98
2023-06-07T05:15:32.225Z,31.98
2023-06-07T05:16:32.326Z,31.99
2023-06-07T05:17:32.279Z,31.99
2023-06-07T05:18:32.255Z,31.98
2023-06-07T05:19:32.309Z,31.98
2023-06-07T05:20:32.350Z,31.98
2023-06-07T05:21:32.427Z,31.96
2023-06-07T05:22:32.462Z,31.96
2023-06-07T05:23:32.478Z,31.94
2023-06-07T05:24:32.532Z,31.97
2023-06-07T05:25:32.638Z,31.96
2023-06-07T05:26:33.036Z,31.93
2023-06-07T05:27:32.693Z,32.00
2023-06-07T05:28:32.750Z,32.25
2023-06-07T05:29:32.814Z,32.52
2023-06-07T05:30:32.851Z,32.47
2023-06-07T05:31:32.978Z,32.72
2023-06-07T05:32:33.010Z,32.89
2023-06-07T05:33:33.032Z,33.44
2023-06-07T05:34:33.097Z,33.42
2023-06-07T05:35:33.167Z,33.48
2023-06-07T05:36:33.201Z,33.73
2023-06-07T05:37:33.239Z,33.89
2023-06-07T05:38:33.382Z,34.49
2023-06-07T05:39:33.326Z,34.26
2023-06-07T05:40:33.374Z,34.16
2023-06-07T05:41:33.511Z,34.05
2023-06-07T05:42:33.451Z,34.05
2023-06-07T05:43:33.483Z,34.04
2023-06-07T05:44:33.497Z,34.09
2023-06-07T05:45:33.527Z,34.07
2023-06-07T05:46:33.580Z,34.08
2023-06-07T05:47:33.609Z,34.13
2023-06-07T05:48:33.617Z,34.27
2023-06-07T05:49:33.614Z,34.16
2023-06-07T05:50:33.654Z,34.19
2023-06-07T05:51:33.699Z,34.16
2023-06-07T05:52:33.674Z,34.18
2023-06-07T05:53:33.694Z,34.20
2023-06-07T05:54:33.715Z,34.21
2023-06-07T05:55:33.755Z,34.17
2023-06-07T05:56:33.746Z,34.16
2023-06-07T05:57:33.783Z,34.17
2023-06-07T05:58:33.757Z,34.19
2023-06-07T05:59:33.775Z,34.23
2023-06-07T06:00:33.805Z,34.31
2023-06-07T06:01:33.766Z,34.32
2023-06-07T06:02:33.930Z,34.26
2023-06-07T06:03:33.832Z,34.27
2023-06-07T06:04:33.901Z,34.31
2023-06-07T06:05:33.795Z,34.31
2023-06-07T06:06:33.807Z,34.33
2023-06-07T06:07:33.802Z,34.34
2023-06-07T06:08:33.780Z,34.35
2023-06-07T06:09:33.791Z,34.29
2023-06-07T06:10:35.798Z,34.28
2023-06-07T06:11:33.909Z,34.32
2023-06-07T06:12:33.948Z,34.28
2023-06-07T06:13:33.937Z,34.28
2023-06-07T06:14:34.001Z,34.31
2023-06-07T06:15:34.000Z,34.25
2023-06-07T06:16:34.052Z,34.26
2023-06-07T06:17:34.078Z,34.28
2023-06-07T06:18:34.138Z,34.23
2023-06-07T06:19:34.202Z,34.24
2023-06-07T06:20:34.251Z,34.26
2023-06-07T06:21:34.474Z,34.24
2023-06-07T06:22:34.376Z,34.24
2023-06-07T06:23:34.446Z,34.27
2023-06-07T06:24:34.493Z,34.25
2023-06-07T06:25:34.547Z,34.27
2023-06-07T06:26:34.988Z,34.35
2023-06-07T06:27:34.661Z,34.24
2023-06-07T06:28:34.711Z,34.28
2023-06-07T06:29:34.737Z,34.24
2023-06-07T06:30:34.792Z,34.27
2023-06-07T06:31:35.101Z,34.18
2023-06-07T06:32:34.896Z,34.22
2023-06-07T06:33:34.939Z,34.16
2023-06-07T06:34:34.981Z,33.84
2023-06-07T06:35:35.052Z,33.56
2023-06-07T06:36:35.469Z,33.42
2023-06-07T06:37:35.169Z,33.48
2023-06-07T06:38:35.200Z,33.59
2023-06-07T06:39:35.238Z,33.56
2023-06-07T06:40:35.305Z,33.47
2023-06-07T06:41:35.400Z,33.46
2023-06-07T06:42:35.437Z,33.40
2023-06-07T06:43:35.453Z,33.38
2023-06-07T06:44:35.522Z,33.39
2023-06-07T06:45:35.544Z,33.43
2023-06-07T06:46:36.064Z,33.39
2023-06-07T06:47:35.674Z,33.40
2023-06-07T06:48:35.721Z,33.42
2023-06-07T06:49:35.846Z,33.45
2023-06-07T06:50:36.008Z,33.48
2023-06-07T06:51:35.988Z,33.54
2023-06-07T06:52:35.815Z,33.64
2023-06-07T06:53:35.843Z,33.69
2023-06-07T06:54:35.851Z,33.62
2023-06-07T06:55:35.876Z,33.60
2023-06-07T06:56:35.988Z,33.55
2023-06-07T06:57:35.952Z,33.55
2023-06-07T06:58:36.012Z,33.53
2023-06-07T06:59:35.946Z,33.48
2023-06-07T07:00:35.965Z,33.47
2023-06-07T07:01:36.531Z,33.33
2023-06-07T07:02:35.992Z,33.41
2023-06-07T07:03:36.043Z,33.43
2023-06-07T07:04:36.127Z,33.43
2023-06-07T07:05:36.011Z,33.45
2023-06-07T07:06:36.097Z,33.43
2023-06-07T07:07:36.024Z,33.37
2023-06-07T07:08:36.029Z,33.36
2023-06-07T07:09:36.009Z,33.32
2023-06-07T07:10:36.013Z,33.32
2023-06-07T07:11:36.050Z,33.33
2023-06-07T07:12:36.107Z,33.30
2023-06-07T07:13:36.172Z,33.33
2023-06-07T07:14:36.285Z,33.28
2023-06-07T07:15:36.257Z,33.23
2023-06-07T07:16:38.834Z,33.28
2023-06-07T07:17:36.304Z,33.34
2023-06-07T07:18:36.274Z,33.34
2023-06-07T07:19:36.275Z,33.32
2023-06-07T07:20:36.236Z,33.29
2023-06-07T07:21:36.600Z,33.27
2023-06-07T07:22:36.258Z,33.27
2023-06-07T07:23:36.325Z,33.45
2023-06-07T07:24:37.261Z,33.19
2023-06-07T07:25:36.235Z,32.40
2023-06-07T07:26:36.532Z,32.03
2023-06-07T07:27:36.201Z,31.88
2023-06-07T07:28:36.213Z,31.69
2023-06-07T07:29:36.191Z,31.74
2023-06-07T07:30:36.181Z,31.66
2023-06-07T07:31:36.512Z,31.98
2023-06-07T07:32:36.225Z,32.09
2023-06-07T07:33:36.155Z,31.43
2023-06-07T07:34:36.512Z,30.99
2023-06-07T07:35:36.499Z,30.81
2023-06-07T07:36:36.154Z,30.70
2023-06-07T07:37:36.148Z,30.76
2023-06-07T07:38:36.127Z,30.68
2023-06-07T07:39:36.122Z,30.67
2023-06-07T07:40:36.131Z,30.69
2023-06-07T07:41:36.180Z,30.60
2023-06-07T07:42:36.203Z,30.71
2023-06-07T07:43:38.099Z,30.87
2023-06-07T07:44:36.298Z,30.58
2023-06-07T07:45:36.523Z,30.85
2023-06-07T07:46:36.532Z,30.70
2023-06-07T07:47:36.474Z,30.81
2023-06-07T07:48:36.445Z,30.79
2023-06-07T07:49:36.738Z,30.76
2023-06-07T07:50:36.530Z,30.86
2023-06-07T07:51:36.566Z,30.42
2023-06-07T07:52:36.603Z,30.54
2023-06-07T07:53:36.654Z,30.73
2023-06-07T07:54:36.688Z,30.73
2023-06-07T07:55:36.724Z,30.87
2023-06-07T07:56:36.778Z,30.75
2023-06-07T07:57:36.799Z,30.76
2023-06-07T07:58:36.834Z,30.80
2023-06-07T07:59:36.896Z,30.69
2023-06-07T08:00:36.916Z,30.42
2023-06-07T08:01:37.019Z,30.44
2023-06-07T08:02:37.195Z,30.45
2023-06-07T08:03:37.362Z,30.44
2023-06-07T08:04:37.154Z,30.45
2023-06-07T08:05:37.164Z,30.48
2023-06-07T08:06:37.230Z,30.44
2023-06-07T08:07:37.285Z,30.48
2023-06-07T08:08:37.322Z,30.51
2023-06-07T08:09:37.430Z,30.70
2023-06-07T08:10:37.427Z,30.67
2023-06-07T08:11:37.500Z,30.77
2023-06-07T08:12:37.552Z,30.68
2023-06-07T08:13:37.595Z,30.89
2023-06-07T08:14:37.638Z,30.99
2023-06-07T08:15:37.678Z,30.92
2023-06-07T08:16:38.056Z,30.64
2023-06-07T08:17:37.767Z,30.76
2023-06-07T08:18:37.850Z,30.78
2023-06-07T08:19:37.858Z,30.72
2023-06-07T08:20:37.887Z,30.61
2023-06-07T08:21:38.046Z,30.42
2023-06-07T08:22:37.961Z,30.68
2023-06-07T08:23:38.121Z,30.78
2023-06-07T08:24:38.064Z,30.74
2023-06-07T08:25:38.086Z,30.75
2023-06-07T08:26:38.104Z,30.79
2023-06-07T08:27:38.157Z,30.90
2023-06-07T08:28:38.216Z,30.82
2023-06-07T08:29:38.261Z,30.95
2023-06-07T08:30:38.264Z,30.89
2023-06-07T08:31:38.330Z,30.80
2023-06-07T08:32:38.369Z,30.75
2023-06-07T08:33:38.359Z,30.86
2023-06-07T08:34:38.403Z,30.90
2023-06-07T08:35:38.445Z,30.95
2023-06-07T08:36:38.537Z,30.96
2023-06-07T08:37:38.515Z,30.81
2023-06-07T08:38:39.036Z,30.92
2023-06-07T08:39:38.598Z,31.03
2023-06-07T08:40:38.668Z,30.99
2023-06-07T08:41:39.043Z,31.02
2023-06-07T08:42:38.684Z,31.04
2023-06-07T08:43:38.755Z,31.09
2023-06-07T08:44:38.730Z,31.14
2023-06-07T08:45:40.578Z,31.22
2023-06-07T08:46:38.834Z,31.09
2023-06-07T08:47:38.756Z,31.24
2023-06-07T08:48:38.762Z,31.28
2023-06-07T08:49:38.753Z,31.33
2023-06-07T08:50:38.716Z,31.36
2023-06-07T08:51:38.710Z,31.42
2023-06-07T08:52:38.800Z,31.44
2023-06-07T08:53:39.069Z,31.37
2023-06-07T08:54:38.714Z,31.41
2023-06-07T08:55:38.722Z,31.53
2023-06-07T08:56:39.079Z,31.49
2023-06-07T08:57:38.678Z,31.49
2023-06-07T08:58:38.674Z,31.51
2023-06-07T08:59:38.736Z,31.56
2023-06-07T09:00:38.697Z,31.56
2023-06-07T09:01:39.051Z,31.56
2023-06-07T09:02:38.701Z,31.60
2023-06-07T09:03:38.665Z,31.64
2023-06-07T09:04:38.651Z,31.66
2023-06-07T09:05:38.624Z,31.69
2023-06-07T09:06:38.629Z,31.68
2023-06-07T09:07:38.612Z,31.73
2023-06-07T09:08:38.636Z,31.73
2023-06-07T09:09:38.614Z,31.76
2023-06-07T09:10:38.600Z,31.79
2023-06-07T09:11:38.570Z,31.80
2023-06-07T09:12:38.579Z,31.84
2023-06-07T09:13:38.610Z,31.85
2023-06-07T09:14:38.572Z,31.85
2023-06-07T09:15:38.548Z,31.89
2023-06-07T09:16:38.616Z,31.94
2023-06-07T09:17:38.706Z,31.97
2023-06-07T09:18:38.561Z,31.98
2023-06-07T09:19:38.533Z,32.03
2023-06-07T09:20:38.503Z,32.06
2023-06-07T09:21:38.522Z,32.09
2023-06-07T09:22:38.488Z,32.13
2023-06-07T09:23:38.558Z,32.12
2023-06-07T09:24:38.495Z,32.15
2023-06-07T09:25:38.491Z,32.16
2023-06-07T09:26:38.575Z,32.14
2023-06-07T09:27:38.542Z,31.74
2023-06-07T09:28:38.711Z,31.44
2023-06-07T09:29:38.687Z,31.50
2023-06-07T09:30:38.642Z,31.53
2023-06-07T09:31:39.313Z,31.38
2023-06-07T09:33:38.767Z,31.04
2023-06-07T09:34:38.792Z,30.97
2023-06-07T09:35:38.916Z,31.01
2023-06-07T09:36:38.878Z,30.55
2023-06-07T09:37:38.964Z,30.29
2023-06-07T09:38:39.002Z,30.26
2023-06-07T09:39:38.995Z,30.46
2023-06-07T09:40:39.015Z,30.41
2023-06-07T09:41:39.134Z,30.29
2023-06-07T09:42:39.101Z,30.39
2023-06-07T09:43:39.218Z,30.16
2023-06-07T09:44:39.207Z,30.04
2023-06-07T09:45:39.384Z,29.85
2023-06-07T09:46:39.304Z,30.08
2023-06-07T09:47:39.337Z,30.12
2023-06-07T09:48:39.547Z,30.10
2023-06-07T09:49:39.398Z,30.04
2023-06-07T09:50:39.432Z,30.09
2023-06-07T09:51:39.538Z,29.89
2023-06-07T09:52:39.525Z,29.72
2023-06-07T09:53:39.576Z,30.12
2023-06-07T09:54:39.584Z,29.45
2023-06-07T09:55:39.669Z,29.64
2023-06-07T09:56:39.607Z,29.68
2023-06-07T09:57:39.676Z,29.67
2023-06-07T09:58:39.721Z,29.69
2023-06-07T09:59:39.836Z,29.68
2023-06-07T10:00:39.783Z,29.84
2023-06-07T10:01:40.331Z,29.37
2023-06-07T10:02:39.849Z,29.32
2023-06-07T10:03:39.912Z,29.14
2023-06-07T10:04:39.968Z,29.15
2023-06-07T10:05:39.871Z,29.26
2023-06-07T10:06:39.927Z,29.37
2023-06-07T10:07:40.033Z,29.32
2023-06-07T10:08:39.963Z,29.46
2023-06-07T10:09:40.018Z,29.37
2023-06-07T10:10:40.036Z,29.34
2023-06-07T10:11:40.086Z,29.49
2023-06-07T10:12:40.157Z,29.25
2023-06-07T10:13:40.126Z,28.98
2023-06-07T10:14:40.139Z,29.23
2023-06-07T10:15:40.205Z,29.21
2023-06-07T10:16:40.617Z,29.11
2023-06-07T10:17:40.263Z,29.05
2023-06-07T10:18:40.257Z,28.99
2023-06-07T10:19:40.334Z,28.85
2023-06-07T10:20:40.328Z,28.88
2023-06-07T10:21:40.385Z,28.76
2023-06-07T10:22:40.386Z,28.41
2023-06-07T10:23:40.508Z,28.40
2023-06-07T10:24:40.434Z,27.53
2023-06-07T10:25:40.458Z,27.61
2023-06-07T10:26:40.603Z,27.76
2023-06-07T10:27:40.558Z,27.56
2023-06-07T10:28:40.616Z,27.85
2023-06-07T10:29:40.599Z,27.69
2023-06-07T10:30:40.626Z,27.51
2023-06-07T10:31:41.221Z,27.56
2023-06-07T10:32:40.740Z,27.49
2023-06-07T10:33:40.725Z,27.28
2023-06-07T10:34:40.744Z,27.28
2023-06-07T10:35:40.803Z,27.03
2023-06-07T10:36:40.828Z,26.97
2023-06-07T10:37:40.868Z,26.77
2023-06-07T10:38:40.933Z,26.57
2023-06-07T10:39:40.992Z,26.71
2023-06-07T10:40:41.025Z,26.92
2023-06-07T10:41:41.109Z,26.88
2023-06-07T10:42:41.147Z,26.75
2023-06-07T10:43:41.122Z,26.71
2023-06-07T10:44:41.157Z,26.67
2023-06-07T10:45:41.201Z,26.75
2023-06-07T10:46:41.309Z,26.41
2023-06-07T10:47:41.408Z,26.41
2023-06-07T10:48:41.313Z,26.54
2023-06-07T10:49:41.751Z,26.75
2023-06-07T10:50:41.410Z,26.93
2023-06-07T10:51:41.452Z,27.00
2023-06-07T10:52:41.518Z,26.95
2023-06-07T10:53:41.525Z,26.92
2023-06-07T10:54:41.574Z,27.14
2023-06-07T10:55:41.687Z,27.20
2023-06-07T10:56:41.673Z,27.14
2023-06-07T10:57:41.688Z,27.27
2023-06-07T10:58:41.769Z,27.00
2023-06-07T10:59:41.837Z,27.07
2023-06-07T11:00:41.833Z,26.91
2023-06-07T11:01:41.931Z,26.80
2023-06-07T11:02:42.034Z,26.98
2023-06-07T11:03:42.137Z,26.98
2023-06-07T11:04:42.473Z,26.76
2023-06-07T11:05:42.051Z,26.73
2023-06-07T11:06:42.080Z,26.57
2023-06-07T11:07:42.078Z,26.28
2023-06-07T11:08:42.139Z,26.19
2023-06-07T11:09:42.240Z,26.04
2023-06-07T11:10:42.185Z,26.28
2023-06-07T11:11:42.236Z,25.99
2023-06-07T11:12:42.629Z,25.93
2023-06-07T11:13:42.338Z,25.97
2023-06-07T11:14:42.359Z,26.11
2023-06-07T11:15:42.477Z,25.84
2023-06-07T11:16:42.527Z,25.96
2023-06-07T11:17:42.556Z,25.78
2023-06-07T11:18:42.571Z,25.87
2023-06-07T11:19:42.640Z,26.01
2023-06-07T11:20:42.710Z,26.06
2023-06-07T11:21:42.764Z,25.66
2023-06-07T11:22:42.796Z,25.68
2023-06-07T11:23:42.875Z,25.85
2023-06-07T11:24:45.840Z,25.38
2023-06-07T11:25:42.927Z,25.32
2023-06-07T11:26:42.912Z,25.51
2023-06-07T11:27:42.918Z,25.28
2023-06-07T11:28:42.903Z,25.65
2023-06-07T11:29:42.998Z,25.53
2023-06-07T11:30:42.889Z,25.65
2023-06-07T11:31:42.904Z,25.59
2023-06-07T11:32:42.893Z,25.75
2023-06-07T11:33:42.882Z,25.50
2023-06-07T11:34:42.860Z,25.32
2023-06-07T11:35:42.890Z,25.51
2023-06-07T11:36:42.865Z,25.78
2023-06-07T11:37:42.911Z,25.55
2023-06-07T11:38:42.895Z,25.90
2023-06-07T11:39:42.827Z,25.91
2023-06-07T11:40:42.814Z,25.79
2023-06-07T11:41:42.839Z,25.79
2023-06-07T11:42:42.813Z,24.81
2023-06-07T11:43:42.794Z,24.95
2023-06-07T11:44:42.820Z,24.96
2023-06-07T11:45:42.766Z,24.57
2023-06-07T11:46:42.864Z,24.62
2023-06-07T11:47:42.900Z,25.18
2023-06-07T11:48:42.863Z,25.22
2023-06-07T11:49:42.770Z,25.29
2023-06-07T11:50:42.732Z,25.36
2023-06-07T11:51:42.776Z,25.51
2023-06-07T11:52:42.752Z,25.50
2023-06-07T11:53:42.750Z,25.54
2023-06-07T11:54:42.738Z,25.62
2023-06-07T11:55:42.711Z,25.72
2023-06-07T11:56:42.702Z,25.74
2023-06-07T11:57:42.693Z,25.75
2023-06-07T11:58:42.677Z,25.78
2023-06-07T11:59:42.681Z,25.81
2023-06-07T12:00:42.746Z,25.79
2023-06-07T12:01:42.674Z,25.88
2023-06-07T12:02:42.724Z,25.93
2023-06-07T12:03:45.221Z,25.94
2023-06-07T12:04:42.726Z,25.84
2023-06-07T12:05:42.708Z,25.94
2023-06-07T12:06:42.704Z,25.96
2023-06-07T12:07:42.683Z,25.97
2023-06-07T12:08:42.690Z,25.87
2023-06-07T12:09:42.668Z,25.99
2023-06-07T12:10:42.671Z,25.99
2023-06-07T12:11:42.661Z,25.91
2023-06-07T12:12:42.651Z,25.97
2023-06-07T12:13:42.672Z,25.96
2023-06-07T12:14:42.628Z,25.97
2023-06-07T12:15:42.727Z,25.90
2023-06-07T12:16:42.644Z,25.92
2023-06-07T12:17:42.669Z,25.95
2023-06-07T12:18:42.607Z,26.05
2023-06-07T12:19:42.597Z,25.92
2023-06-07T12:20:42.655Z,25.83
2023-06-07T12:21:42.601Z,25.91
2023-06-07T12:22:42.580Z,25.76
2023-06-07T12:23:42.583Z,25.91
2023-06-07T12:24:42.568Z,25.85
2023-06-07T12:25:42.746Z,25.78
2023-06-07T12:26:42.575Z,25.68
2023-06-07T12:27:42.550Z,25.71
2023-06-07T12:28:42.537Z,25.74
2023-06-07T12:29:42.522Z,25.66
2023-06-07T12:30:42.528Z,25.65
2023-06-07T12:31:42.574Z,25.67
2023-06-07T12:32:42.555Z,25.67
2023-06-07T12:33:42.525Z,25.59
2023-06-07T12:34:42.502Z,25.53
2023-06-07T12:35:42.477Z,25.59
2023-06-07T12:36:42.484Z,25.50
2023-06-07T12:37:42.454Z,25.52
2023-06-07T12:38:42.466Z,25.52
2023-06-07T12:39:42.466Z,25.49
2023-06-07T12:40:42.480Z,25.58
2023-06-07T12:41:42.478Z,25.47
2023-06-07T12:42:42.446Z,25.57
2023-06-07T12:43:42.430Z,25.44
2023-06-07T12:44:42.439Z,25.62
2023-06-07T12:45:42.420Z,25.56
2023-06-07T12:46:42.442Z,25.63
2023-06-07T12:47:42.475Z,25.50
2023-06-07T12:48:42.412Z,25.58
2023-06-07T12:49:42.417Z,25.50
2023-06-07T12:50:42.428Z,25.44
2023-06-07T12:51:42.509Z,25.46
2023-06-07T12:52:42.587Z,25.42
2023-06-07T12:53:42.657Z,25.34